Time;durP1;ratioP1;P1;durP2;ratioP2;P2;SDS_P1;SDS_P2;PMS_P1;PMS_P2;Temp;Humidity;BMP_temperature;BMP_pressure;BME280_temperature;BME280_humidity;BME280_pressure;Samples;Min_cycle;Max_cycle;Signal;HPM_P1;HPM_P2
2022/05/04 00:00:43;;;;;;;9.93;8.93;;;18.00;13.50;;;;;;5053018;28;20104;-64
2022/05/04 00:03:09;;;;;;;11.45;9.45;;;18.00;13.50;;;;;;5052162;28;20029;-64
2022/05/04 00:05:35;;;;;;;12.60;10.23;;;18.00;13.30;;;;;;5053167;28;20036;-64
2022/05/04 00:08:01;;;;;;;12.60;8.80;;;18.00;13.40;;;;;;5042908;28;20039;-64
2022/05/04 00:10:26;;;;;;;10.65;9.48;;;17.90;13.50;;;;;;5041150;28;20454;-64
2022/05/04 00:12:52;;;;;;;11.25;10.18;;;17.90;13.40;;;;;;5051881;28;20115;-63
2022/05/04 00:15:18;;;;;;;10.35;9.40;;;17.90;13.40;;;;;;5052938;28;20489;-64
2022/05/04 00:17:43;;;;;;;11.95;10.82;;;18.00;13.50;;;;;;5041107;28;20029;-63
2022/05/04 00:20:09;;;;;;;12.10;10.38;;;18.00;13.70;;;;;;5041671;28;20488;-64
2022/05/04 00:22:35;;;;;;;11.98;10.23;;;18.00;13.70;;;;;;5032313;28;20022;-64
2022/05/04 00:25:02;;;;;;;11.73;10.52;;;18.00;13.80;;;;;;5045136;28;20047;-64
2022/05/04 00:27:28;;;;;;;13.40;11.85;;;18.00;14.30;;;;;;5051373;28;20051;-63
2022/05/04 00:29:53;;;;;;;13.63;10.82;;;17.90;14.50;;;;;;5052539;28;20021;-64
2022/05/04 00:32:19;;;;;;;13.60;12.27;;;17.90;14.60;;;;;;5051714;28;20363;-63
2022/05/04 00:34:45;;;;;;;16.67;12.00;;;17.80;14.90;;;;;;5052464;28;20128;-64
2022/05/04 00:37:11;;;;;;;14.18;12.73;;;17.90;15.00;;;;;;5051894;28;20025;-63
2022/05/04 00:39:37;;;;;;;13.75;12.45;;;17.90;15.80;;;;;;5052442;28;20037;-64
2022/05/04 00:42:17;;;;;;;14.90;13.45;;;17.90;15.50;;;;;;5052311;28;20036;-63
2022/05/04 00:44:44;;;;;;;15.73;14.10;;;17.90;16.90;;;;;;5032632;28;20129;-63
2022/05/04 00:47:10;;;;;;;16.08;14.40;;;17.90;16.20;;;;;;5050165;28;20029;-63
2022/05/04 00:49:37;;;;;;;16.25;14.13;;;17.80;16.50;;;;;;5051901;28;20104;-64
2022/05/04 00:52:06;;;;;;;16.48;14.73;;;17.80;16.50;;;;;;5051417;28;20028;-64
2022/05/04 00:54:34;;;;;;;16.80;15.10;;;17.90;17.00;;;;;;5049543;28;20063;-63
2022/05/04 00:57:01;;;;;;;17.67;15.30;;;17.90;16.50;;;;;;5052235;28;20029;-64
2022/05/04 00:59:29;;;;;;;17.95;15.77;;;17.90;16.70;;;;;;5051674;28;20029;-63
2022/05/04 01:01:55;;;;;;;17.05;15.25;;;17.90;16.90;;;;;;5052128;28;20025;-63
2022/05/04 01:04:21;;;;;;;17.17;15.48;;;17.80;17.70;;;;;;5051429;28;20029;-64
2022/05/04 01:06:46;;;;;;;16.50;14.75;;;17.80;17.50;;;;;;5052309;28;20340;-64
2022/05/04 01:09:12;;;;;;;16.48;14.77;;;17.80;17.30;;;;;;5050827;28;20573;-64
2022/05/04 01:11:39;;;;;;;16.63;14.88;;;17.60;17.80;;;;;;5051646;28;20085;-63
2022/05/04 01:14:09;;;;;;;14.95;13.35;;;17.70;18.00;;;;;;5050768;28;20417;-64
2022/05/04 01:16:37;;;;;;;16.20;14.32;;;17.80;18.10;;;;;;5050578;28;20036;-64
2022/05/04 01:19:03;;;;;;;16.25;14.13;;;17.70;18.30;;;;;;5050347;28;20040;-63
2022/05/04 01:21:29;;;;;;;16.67;14.27;;;17.80;18.40;;;;;;5050606;28;20070;-63
2022/05/04 01:23:57;;;;;;;15.75;14.20;;;17.70;18.40;;;;;;5050462;28;20029;-64
2022/05/04 01:26:23;;;;;;;17.77;14.30;;;17.80;18.40;;;;;;5051335;28;20037;-64
2022/05/04 01:28:48;;;;;;;17.05;15.23;;;17.70;18.50;;;;;;5050890;28;20078;-63
2022/05/04 01:31:14;;;;;;;16.60;14.95;;;17.70;18.90;;;;;;5051710;28;20521;-64
2022/05/04 01:33:40;;;;;;;17.60;15.30;;;17.60;19.20;;;;;;5051028;28;20374;-64
2022/05/04 01:36:06;;;;;;;15.68;14.07;;;17.60;19.90;;;;;;5052247;28;20500;-64
2022/05/04 01:38:33;;;;;;;16.92;14.85;;;17.60;19.30;;;;;;5055197;28;20055;-63
2022/05/04 01:40:59;;;;;;;17.92;16.13;;;17.60;19.50;;;;;;5055627;28;20025;-63
2022/05/04 01:43:25;;;;;;;17.27;15.57;;;17.70;19.40;;;;;;5054687;28;20053;-63
2022/05/04 01:45:50;;;;;;;18.30;16.15;;;17.70;19.60;;;;;;5055451;28;20110;-63
2022/05/04 01:48:16;;;;;;;17.50;15.80;;;17.60;19.40;;;;;;5053976;28;20044;-63
2022/05/04 01:50:42;;;;;;;17.70;15.90;;;17.60;19.80;;;;;;5054163;28;20064;-63
2022/05/04 01:53:08;;;;;;;19.35;17.30;;;17.50;20.00;;;;;;5054469;28;20044;-63
2022/05/04 01:55:35;;;;;;;20.25;18.27;;;17.50;20.20;;;;;;5055591;28;20100;-63
2022/05/04 01:58:02;;;;;;;21.45;19.15;;;17.60;20.30;;;;;;5054046;28;20537;-63
2022/05/04 02:04:22;;;;;;;23.23;20.73;;;17.60;21.50;;;;;;5051895;28;20500;-63
2022/05/04 02:06:48;;;;;;;22.50;19.20;;;17.50;21.80;;;;;;5054343;28;20036;-65
2022/05/04 02:09:14;;;;;;;22.85;20.38;;;17.50;20.60;;;;;;5070632;28;20031;-63
2022/05/04 02:11:40;;;;;;;22.58;19.52;;;17.50;20.70;;;;;;5054498;28;20022;-63
2022/05/04 02:14:06;;;;;;;23.65;21.15;;;17.40;20.80;;;;;;5053774;28;20056;-63
2022/05/04 02:16:32;;;;;;;22.85;20.45;;;17.50;20.80;;;;;;5054315;28;20029;-63
2022/05/04 02:18:58;;;;;;;23.50;21.00;;;17.50;20.80;;;;;;5069401;28;20459;-63
2022/05/04 02:21:24;;;;;;;22.35;18.60;;;17.50;20.80;;;;;;5054154;28;20115;-64
2022/05/04 02:23:51;;;;;;;19.63;17.60;;;17.30;21.80;;;;;;5054415;28;20055;-63
2022/05/04 02:26:16;;;;;;;19.13;17.10;;;17.40;20.80;;;;;;5053632;28;20474;-63
2022/05/04 02:28:43;;;;;;;18.45;15.50;;;17.50;21.00;;;;;;5055215;28;20025;-64
2022/05/04 02:31:09;;;;;;;18.15;16.27;;;17.60;20.60;;;;;;5053990;28;20079;-64
2022/05/04 02:33:35;;;;;;;18.65;16.00;;;17.60;20.70;;;;;;5054858;28;20040;-64
2022/05/04 02:38:45;;;;;;;19.00;17.00;;;17.60;20.40;;;;;;5055148;28;20044;-64
2022/05/04 02:41:11;;;;;;;17.40;15.65;;;17.50;20.60;;;;;;5063303;28;20029;-64
2022/05/04 02:43:36;;;;;;;18.38;15.60;;;17.40;20.80;;;;;;5053148;28;20134;-64
2022/05/04 02:46:19;;;;;;;18.48;16.55;;;17.40;20.90;;;;;;5050429;28;20029;-64
2022/05/04 02:48:46;;;;;;;17.50;14.63;;;17.50;21.70;;;;;;5034109;28;20030;-64
2022/05/04 02:51:11;;;;;;;17.80;15.43;;;17.50;21.00;;;;;;5042092;28;20029;-64
2022/05/04 02:53:37;;;;;;;16.70;14.98;;;17.50;21.10;;;;;;5054577;28;20041;-64
2022/05/04 02:56:05;;;;;;;18.35;15.85;;;17.50;20.90;;;;;;5053771;28;20501;-64
2022/05/04 02:58:31;;;;;;;19.95;15.95;;;17.50;20.70;;;;;;5070138;28;20029;-64
2022/05/04 03:02:26;;;;;;;17.42;15.20;;;17.50;20.80;;;;;;5053584;28;20043;-63
2022/05/04 03:03:56;;;;;;;15.38;13.88;;;17.50;21.90;;;;;;5054252;28;20128;-64
2022/05/04 03:06:22;;;;;;;15.68;14.07;;;17.40;21.30;;;;;;5053276;28;20041;-63
2022/05/04 03:08:48;;;;;;;15.65;14.02;;;17.30;21.60;;;;;;5054351;28;20021;-64
2022/05/04 03:13:59;;;;;;;16.85;15.05;;;17.30;21.70;;;;;;5053896;28;20079;-63
2022/05/04 03:16:25;;;;;;;14.82;13.23;;;17.30;21.70;;;;;;5053086;28;20067;-63
2022/05/04 03:18:50;;;;;;;16.90;15.15;;;17.20;22.30;;;;;;5052615;28;20032;-63
2022/05/04 03:21:16;;;;;;;18.92;15.23;;;17.30;22.20;;;;;;5053157;28;20060;-64
2022/05/04 03:23:41;;;;;;;15.93;14.15;;;17.30;22.10;;;;;;5053823;28;20055;-64
2022/05/04 03:26:10;;;;;;;17.05;15.25;;;17.30;21.90;;;;;;5053345;28;20029;-64
2022/05/04 03:28:36;;;;;;;17.98;16.13;;;17.30;22.30;;;;;;5053914;28;20465;-64
2022/05/04 03:31:02;;;;;;;16.75;15.13;;;17.30;21.80;;;;;;5052012;28;20163;-64
2022/05/04 03:33:28;;;;;;;18.00;15.48;;;17.30;22.00;;;;;;5053715;28;20044;-64
2022/05/04 03:35:54;;;;;;;19.00;16.27;;;17.30;21.90;;;;;;5052650;28;20074;-64
2022/05/04 03:38:19;;;;;;;15.85;14.07;;;17.30;22.30;;;;;;5052908;28;20032;-64
2022/05/04 03:40:45;;;;;;;15.77;14.07;;;17.30;22.80;;;;;;5053213;28;20048;-64
2022/05/04 03:43:11;;;;;;;16.40;14.63;;;17.30;23.10;;;;;;5067656;28;20064;-64
2022/05/04 03:45:36;;;;;;;15.38;13.77;;;17.30;22.50;;;;;;5052821;28;20032;-64
2022/05/04 03:48:02;;;;;;;16.27;14.52;;;17.20;22.90;;;;;;5053657;28;20155;-64
2022/05/04 03:50:28;;;;;;;16.40;13.93;;;17.20;22.80;;;;;;5052828;28;20450;-64
2022/05/04 03:52:53;;;;;;;17.67;14.88;;;17.30;22.80;;;;;;5053109;28;20119;-63
2022/05/04 03:55:19;;;;;;;15.93;14.35;;;17.20;23.10;;;;;;5053283;28;20108;-64
2022/05/04 03:57:45;;;;;;;16.42;14.02;;;17.20;23.00;;;;;;5052589;28;20040;-64
2022/05/04 04:00:11;;;;;;;16.92;15.13;;;17.30;23.10;;;;;;5052353;28;20055;-63
2022/05/04 04:02:36;;;;;;;17.40;15.65;;;17.30;23.20;;;;;;5068503;28;20025;-63
2022/05/04 04:05:02;;;;;;;16.85;15.05;;;17.40;22.90;;;;;;5052220;28;20467;-63
2022/05/04 04:07:28;;;;;;;16.70;14.90;;;17.30;23.00;;;;;;5052797;28;20060;-63
2022/05/04 04:09:53;;;;;;;16.63;14.98;;;17.20;22.90;;;;;;5052130;28;20044;-63
2022/05/04 04:12:19;;;;;;;20.13;15.45;;;17.00;23.60;;;;;;5052762;28;20374;-63
2022/05/04 04:14:44;;;;;;;16.45;14.32;;;17.00;23.70;;;;;;5051862;28;20033;-63
2022/05/04 04:17:10;;;;;;;16.63;14.38;;;17.20;23.20;;;;;;5052755;28;20116;-63
2022/05/04 04:19:36;;;;;;;17.70;14.45;;;17.20;22.90;;;;;;5051550;28;20104;-63
2022/05/04 04:22:02;;;;;;;16.35;14.30;;;17.30;22.80;;;;;;5052606;28;20025;-64
2022/05/04 04:24:28;;;;;;;16.70;15.00;;;17.30;22.60;;;;;;5051910;28;20036;-63
2022/05/04 04:26:53;;;;;;;14.50;12.82;;;17.30;22.50;;;;;;5052635;28;20383;-63
2022/05/04 04:29:19;;;;;;;18.60;15.45;;;17.40;22.50;;;;;;5050186;28;20039;-63
2022/05/04 04:31:45;;;;;;;16.45;14.70;;;17.30;22.70;;;;;;5052502;28;20021;-63
2022/05/04 04:34:10;;;;;;;15.50;13.98;;;17.20;22.60;;;;;;5051503;28;20045;-63
2022/05/04 04:36:36;;;;;;;15.85;14.15;;;17.40;22.40;;;;;;5052492;28;20028;-63
2022/05/04 04:39:02;;;;;;;15.93;14.32;;;17.40;22.20;;;;;;5051716;28;20044;-63
2022/05/04 04:41:30;;;;;;;16.08;14.20;;;17.40;22.10;;;;;;5051179;28;20540;-63
2022/05/04 04:43:55;;;;;;;14.75;12.98;;;17.30;22.20;;;;;;5052249;28;20060;-63
2022/05/04 04:46:21;;;;;;;16.95;13.40;;;17.40;22.10;;;;;;5051649;28;20036;-63
2022/05/04 04:48:47;;;;;;;14.98;13.05;;;17.40;21.70;;;;;;5052121;28;20474;-63
2022/05/04 04:51:13;;;;;;;14.85;13.40;;;17.40;21.80;;;;;;5051334;28;20029;-63
2022/05/04 04:53:38;;;;;;;15.90;13.93;;;17.40;21.70;;;;;;5067567;28;20041;-63
2022/05/04 04:56:05;;;;;;;14.38;13.05;;;17.40;21.60;;;;;;5034532;28;20116;-63
2022/05/04 04:58:30;;;;;;;15.52;13.40;;;17.30;21.60;;;;;;5035721;28;20051;-63
2022/05/04 05:00:57;;;;;;;14.77;13.27;;;17.40;21.40;;;;;;5051455;28;20107;-63
2022/05/04 05:03:22;;;;;;;15.93;13.13;;;17.40;21.10;;;;;;5052532;28;20079;-64
2022/05/04 05:05:48;;;;;;;15.73;14.15;;;17.50;20.90;;;;;;5037328;28;20120;-63
2022/05/04 05:08:14;;;;;;;15.20;13.30;;;17.40;20.80;;;;;;5032230;28;20021;-63
2022/05/04 05:10:40;;;;;;;14.40;13.02;;;17.50;20.60;;;;;;5044299;28;20082;-63
2022/05/04 05:13:06;;;;;;;14.40;12.90;;;17.50;20.30;;;;;;5055861;28;20033;-63
2022/05/04 05:18:21;;;;;;;14.93;11.90;;;17.50;20.10;;;;;;5055890;28;20048;-63
2022/05/04 05:20:47;;;;;;;14.82;12.98;;;17.60;19.80;;;;;;5055166;28;20025;-63
2022/05/04 05:23:13;;;;;;;12.98;11.68;;;17.50;19.90;;;;;;5056037;28;20032;-63
2022/05/04 05:25:39;;;;;;;13.20;11.68;;;17.50;19.60;;;;;;5055189;28;20063;-63
2022/05/04 05:28:05;;;;;;;13.23;11.75;;;17.60;19.60;;;;;;5069729;28;20110;-63
2022/05/04 05:30:31;;;;;;;16.30;12.98;;;17.60;19.40;;;;;;5069524;28;20036;-63
2022/05/04 05:32:57;;;;;;;13.40;12.00;;;17.60;19.30;;;;;;5056100;28;20043;-63
2022/05/04 05:35:22;;;;;;;13.85;12.40;;;17.60;19.60;;;;;;5069723;28;20033;-63
2022/05/04 05:37:48;;;;;;;14.45;13.13;;;17.70;19.60;;;;;;5055898;28;20494;-63
2022/05/04 05:40:14;;;;;;;15.55;12.73;;;17.50;19.90;;;;;;5055091;28;20033;-63
2022/05/04 05:42:39;;;;;;;13.93;12.45;;;17.50;19.80;;;;;;5055700;28;20053;-63
2022/05/04 05:45:06;;;;;;;16.48;12.70;;;17.60;19.90;;;;;;5054800;28;20025;-63
2022/05/04 05:47:32;;;;;;;13.82;11.57;;;17.60;19.90;;;;;;5055024;28;20381;-63
2022/05/04 05:49:58;;;;;;;16.23;12.82;;;17.60;19.60;;;;;;5054113;28;20021;-64
2022/05/04 05:52:24;;;;;;;18.90;12.55;;;17.70;19.10;;;;;;5055864;28;20029;-63
2022/05/04 05:54:50;;;;;;;16.02;11.30;;;17.60;19.10;;;;;;5051539;28;20055;-63
2022/05/04 05:57:16;;;;;;;15.18;12.00;;;17.50;19.20;;;;;;5052526;28;20040;-64
2022/05/04 05:59:42;;;;;;;14.85;11.70;;;17.60;18.90;;;;;;5049405;28;20037;-63
2022/05/04 06:02:08;;;;;;;13.50;11.65;;;17.60;18.70;;;;;;5060515;28;20029;-63
2022/05/04 06:04:33;;;;;;;12.68;11.25;;;17.50;18.70;;;;;;5040935;28;20069;-62
2022/05/04 06:06:59;;;;;;;14.18;10.60;;;17.60;18.40;;;;;;5042196;28;20033;-64
2022/05/04 06:09:24;;;;;;;12.63;11.00;;;17.50;18.20;;;;;;5049071;28;20025;-63
2022/05/04 06:11:52;;;;;;;11.93;10.55;;;17.40;18.20;;;;;;5051358;28;20176;-61
2022/05/04 06:14:32;;;;;;;14.73;10.55;;;17.50;17.80;;;;;;5053438;28;20170;-62
2022/05/04 06:16:58;;;;;;;14.32;12.05;;;17.70;17.40;;;;;;5054919;28;20036;-62
2022/05/04 06:19:23;;;;;;;14.77;11.60;;;17.60;17.80;;;;;;5054796;28;20029;-63
2022/05/04 06:21:49;;;;;;;12.80;10.82;;;17.70;17.80;;;;;;5053597;28;20025;-62
2022/05/04 06:24:15;;;;;;;14.85;11.20;;;17.80;17.70;;;;;;5052581;28;20458;-62
2022/05/04 06:26:40;;;;;;;14.13;11.80;;;17.70;17.60;;;;;;5054115;28;20102;-63
2022/05/04 06:29:06;;;;;;;13.13;10.95;;;17.80;17.40;;;;;;5054827;28;20021;-62
2022/05/04 06:34:16;;;;;;;12.20;10.70;;;17.80;17.10;;;;;;5054763;28;20114;-63
2022/05/04 06:36:42;;;;;;;14.18;10.82;;;18.00;17.00;;;;;;5053092;28;20703;-63
2022/05/04 06:39:09;;;;;;;14.35;10.57;;;18.00;17.00;;;;;;5059949;28;20029;-63
2022/05/04 06:41:36;;;;;;;14.07;11.95;;;17.90;17.30;;;;;;5068711;28;20027;-63
2022/05/04 06:44:03;;;;;;;16.40;12.18;;;18.10;17.20;;;;;;5054155;28;20049;-63
2022/05/04 06:46:29;;;;;;;16.30;12.43;;;18.10;17.40;;;;;;5053440;28;20029;-63
2022/05/04 06:55:39;;;;;;;21.08;13.82;;;18.00;17.80;;;;;;5050990;28;20113;-64
2022/05/04 06:58:04;;;;;;;15.85;12.60;;;17.90;17.70;;;;;;5069611;28;20056;-64
2022/05/04 07:00:30;;;;;;;13.05;11.68;;;17.90;17.80;;;;;;5053117;28;20031;-63
2022/05/04 07:02:56;;;;;;;18.05;12.55;;;17.90;17.60;;;;;;5054095;28;20032;-63
2022/05/04 07:05:22;;;;;;;15.32;13.23;;;18.00;18.00;;;;;;5053832;28;20021;-63
2022/05/04 07:07:48;;;;;;;13.82;12.45;;;17.90;17.60;;;;;;5054084;28;20401;-63
2022/05/04 07:10:14;;;;;;;14.27;12.52;;;17.80;17.90;;;;;;5052418;28;20025;-63
2022/05/04 07:12:40;;;;;;;18.95;12.73;;;17.90;17.70;;;;;;5054160;28;20336;-63
2022/05/04 07:15:06;;;;;;;13.65;12.20;;;18.10;17.70;;;;;;5053009;28;20490;-63
2022/05/04 07:17:32;;;;;;;16.90;12.82;;;18.10;17.40;;;;;;5052553;28;20037;-63
2022/05/04 07:19:58;;;;;;;16.75;12.93;;;18.20;17.00;;;;;;5051886;28;20094;-63
2022/05/04 07:22:23;;;;;;;13.50;11.63;;;18.20;16.90;;;;;;5053437;28;20029;-63
2022/05/04 07:24:50;;;;;;;15.68;11.65;;;18.20;16.50;;;;;;5052590;28;20029;-63
2022/05/04 07:27:15;;;;;;;13.93;10.70;;;18.40;16.10;;;;;;5053327;28;20040;-63
2022/05/04 07:29:46;;;;;;;13.23;11.00;;;18.50;16.00;;;;;;5052370;28;20037;-63
2022/05/04 07:32:12;;;;;;;13.65;11.10;;;18.60;15.10;;;;;;5053131;28;20036;-63
2022/05/04 07:34:38;;;;;;;12.80;9.60;;;18.40;15.50;;;;;;5052445;28;20082;-63
2022/05/04 07:37:04;;;;;;;11.75;10.45;;;18.50;15.20;;;;;;5052629;28;20377;-62
2022/05/04 07:42:21;;;;;;;14.00;10.57;;;18.70;14.20;;;;;;5053314;28;20126;-63
2022/05/04 07:44:47;;;;;;;10.98;9.73;;;18.90;14.00;;;;;;5052390;28;20039;-63
2022/05/04 07:47:13;;;;;;;11.93;10.57;;;18.90;13.80;;;;;;5053106;28;20466;-63
2022/05/04 07:49:38;;;;;;;11.57;9.93;;;19.00;13.70;;;;;;5050856;28;20033;-62
2022/05/04 07:52:04;;;;;;;11.45;10.10;;;19.10;13.50;;;;;;5052046;28;20052;-62
2022/05/04 07:54:30;;;;;;;12.35;10.07;;;19.10;14.10;;;;;;5051958;28;20045;-62
2022/05/04 07:56:56;;;;;;;12.38;9.65;;;19.00;12.80;;;;;;5068003;28;20390;-62
2022/05/04 07:59:21;;;;;;;12.30;9.80;;;19.10;12.30;;;;;;5051229;28;20428;-63
2022/05/04 08:04:33;;;;;;;11.10;10.00;;;19.30;11.50;;;;;;5051299;28;20581;-62
2022/05/04 08:06:59;;;;;;;15.45;10.95;;;19.30;11.30;;;;;;5051257;28;20052;-63
2022/05/04 08:09:24;;;;;;;12.32;10.18;;;19.40;11.20;;;;;;5051709;28;20423;-63
2022/05/04 08:11:50;;;;;;;12.35;11.10;;;19.50;11.40;;;;;;5050839;28;20441;-63
2022/05/04 08:14:16;;;;;;;11.98;10.57;;;19.50;10.90;;;;;;5051692;28;20037;-63
2022/05/04 08:16:42;;;;;;;14.60;11.55;;;19.40;10.90;;;;;;5052384;28;20017;-63
2022/05/04 08:19:08;;;;;;;13.82;11.30;;;19.50;10.90;;;;;;5051575;28;20044;-63
2022/05/04 08:21:36;;;;;;;14.27;10.45;;;19.40;10.80;;;;;;5051431;28;20386;-63
2022/05/04 08:24:02;;;;;;;13.02;10.60;;;19.50;10.50;;;;;;5051616;28;20029;-63
2022/05/04 08:26:27;;;;;;;12.60;10.85;;;19.50;10.40;;;;;;5052285;28;20055;-63
2022/05/04 08:28:53;;;;;;;36.42;11.93;;;19.50;10.60;;;;;;5049507;28;20033;-63
2022/05/04 08:31:21;;;;;;;12.85;10.80;;;19.60;10.20;;;;;;5052159;28;20112;-62
2022/05/04 08:33:48;;;;;;;12.35;11.07;;;19.60;10.40;;;;;;5051383;28;20037;-63
2022/05/04 08:36:13;;;;;;;13.60;11.50;;;19.50;10.30;;;;;;5052166;28;20051;-63
2022/05/04 08:38:39;;;;;;;11.95;10.75;;;19.60;10.20;;;;;;5051283;28;20029;-63
2022/05/04 08:41:06;;;;;;;12.48;11.18;;;19.50;9.90;;;;;;5046019;28;20557;-62
2022/05/04 08:43:33;;;;;;;17.20;12.35;;;19.60;9.90;;;;;;5044667;28;20372;-63
2022/05/04 08:46:01;;;;;;;15.73;13.45;;;19.60;9.70;;;;;;5044216;28;20028;-62
2022/05/04 08:48:29;;;;;;;14.10;10.98;;;19.60;9.40;;;;;;5045119;28;20466;-63
2022/05/04 08:50:56;;;;;;;15.35;10.80;;;19.60;9.40;;;;;;5047959;28;20063;-62
2022/05/04 08:53:26;;;;;;;12.95;11.27;;;19.70;9.40;;;;;;5044934;28;20048;-62
2022/05/04 08:55:52;;;;;;;14.75;11.27;;;19.70;9.10;;;;;;5048762;28;20040;-63
2022/05/04 08:58:18;;;;;;;12.32;11.02;;;19.80;8.90;;;;;;5063750;28;20387;-62
2022/05/04 09:00:44;;;;;;;15.18;11.15;;;19.80;8.70;;;;;;5047213;28;20017;-63
2022/05/04 09:03:09;;;;;;;15.60;11.30;;;19.90;13.10;;;;;;5047186;28;20441;-63
2022/05/04 09:05:40;;;;;;;14.50;11.23;;;20.20;12.90;;;;;;5049098;28;20035;-63
2022/05/04 09:08:07;;;;;;;12.07;10.85;;;20.00;7.80;;;;;;5047979;28;20025;-63
2022/05/04 09:10:37;;;;;;;12.13;10.10;;;19.80;7.60;;;;;;5050382;28;20374;-63
2022/05/04 09:13:04;;;;;;;13.52;10.13;;;20.00;7.20;;;;;;5051464;28;20041;-63
2022/05/04 09:15:31;;;;;;;13.18;10.27;;;20.20;6.90;;;;;;5049988;28;20064;-63
2022/05/04 09:17:58;;;;;;;12.02;10.70;;;20.20;7.00;;;;;;5045210;28;20102;-63
2022/05/04 09:20:45;;;;;;;14.25;11.82;;;20.30;7.00;;;;;;5051767;28;20109;-63
2022/05/04 09:23:24;;;;;;;14.98;12.63;;;20.40;5.80;;;;;;5050135;28;20051;-63
2022/05/04 09:25:55;;;;;;;13.13;10.95;;;20.50;5.90;;;;;;5051630;28;20017;-63
2022/05/04 09:28:24;;;;;;;13.30;11.77;;;20.50;6.30;;;;;;5049673;28;20497;-62
2022/05/04 09:30:51;;;;;;;13.30;11.60;;;20.60;6.20;;;;;;5050750;28;20021;-63
2022/05/04 09:33:22;;;;;;;13.90;11.23;;;20.70;4.40;;;;;;5050303;28;20463;-63
2022/05/04 09:35:51;;;;;;;12.65;11.10;;;20.70;5.30;;;;;;5050547;28;20123;-63
2022/05/04 09:47:22;;;;;;;14.10;11.98;;;20.90;4.90;;;;;;5045881;28;20178;-63
2022/05/04 09:49:49;;;;;;;14.43;12.13;;;21.00;5.40;;;;;;5049693;28;20497;-64
2022/05/04 09:52:25;;;;;;;14.45;12.95;;;21.00;4.90;;;;;;5047296;28;20021;-63
2022/05/04 09:54:52;;;;;;;17.90;12.13;;;21.20;3.60;;;;;;5053605;28;20136;-64
2022/05/04 09:57:20;;;;;;;18.25;12.88;;;21.20;4.70;;;;;;5049850;28;20029;-63
2022/05/04 09:59:46;;;;;;;14.82;12.90;;;21.20;4.80;;;;;;5051589;28;20036;-63
2022/05/04 10:02:13;;;;;;;15.85;12.60;;;21.30;4.50;;;;;;5052784;28;20044;-63
2022/05/04 10:04:43;;;;;;;13.75;12.30;;;21.30;3.20;;;;;;5064838;28;20029;-63
2022/05/04 10:07:10;;;;;;;12.90;11.60;;;21.30;3.80;;;;;;5045655;28;20090;-64
2022/05/04 10:09:36;;;;;;;12.45;10.82;;;21.30;3.90;;;;;;5052759;28;20017;-63
2022/05/04 10:12:03;;;;;;;14.88;10.07;;;21.30;3.20;;;;;;5051916;28;20531;-63
2022/05/04 10:14:30;;;;;;;14.88;9.45;;;21.40;1.90;;;;;;5053953;28;20571;-63
2022/05/04 10:17:06;;;;;;;11.38;9.50;;;21.40;2.10;;;;;;5053453;28;20028;-63
2022/05/04 10:20:09;;;;;;;9.90;8.68;;;21.40;1.50;;;;;;5051322;28;20558;-63
2022/05/04 10:22:59;;;;;;;10.85;8.45;;;21.40;1.00;;;;;;5043964;28;20516;-65
2022/05/04 10:25:26;;;;;;;9.82;7.93;;;21.40;1.00;;;;;;5066476;28;20041;-63
2022/05/04 10:28:06;;;;;;;7.60;6.30;;;21.50;1.10;;;;;;5052026;28;20059;-63
2022/05/04 10:30:34;;;;;;;7.40;6.70;;;21.40;1.00;;;;;;5041623;28;20029;-64
2022/05/04 10:33:08;;;;;;;10.23;8.02;;;21.30;1.00;;;;;;5051814;28;20609;-63
2022/05/04 10:35:43;;;;;;;7.93;7.22;;;21.30;1.00;;;;;;5054114;28;20021;-63
2022/05/04 10:38:15;;;;;;;11.43;8.15;;;21.30;1.00;;;;;;5051195;28;20110;-63
2022/05/04 10:40:51;;;;;;;13.20;9.80;;;21.20;1.00;;;;;;5051071;28;20048;-63
2022/05/04 10:43:41;;;;;;;10.20;8.35;;;21.20;1.00;;;;;;5052011;28;20033;-63
2022/05/04 10:46:11;;;;;;;10.10;8.93;;;21.30;1.00;;;;;;5043665;28;20068;-63
2022/05/04 10:49:03;;;;;;;9.20;8.18;;;21.40;1.00;;;;;;5052990;28;20383;-64
2022/05/04 10:51:30;;;;;;;11.98;8.77;;;21.30;1.00;;;;;;5049205;28;20032;-64
2022/05/04 10:54:21;;;;;;;10.15;8.98;;;21.20;1.00;;;;;;5050963;28;20123;-63
2022/05/04 10:56:52;;;;;;;9.73;8.73;;;21.10;1.00;;;;;;5048624;28;20029;-64
2022/05/04 10:59:24;;;;;;;10.57;9.38;;;21.00;1.00;;;;;;5051921;28;20036;-63
2022/05/04 11:01:54;;;;;;;9.38;8.38;;;21.00;1.00;;;;;;5051530;28;20030;-63
2022/05/04 11:04:22;;;;;;;9.73;8.77;;;21.10;1.00;;;;;;5052153;28;20033;-64
2022/05/04 11:06:53;;;;;;;12.77;9.27;;;21.20;1.00;;;;;;5049046;28;20063;-63
2022/05/04 11:09:25;;;;;;;10.80;9.75;;;21.10;1.00;;;;;;5050479;28;20390;-63
2022/05/04 11:11:52;;;;;;;10.85;9.57;;;21.30;1.00;;;;;;5047074;28;20029;-63
2022/05/04 11:14:22;;;;;;;13.57;8.93;;;21.30;1.00;;;;;;5048965;28;20063;-64
2022/05/04 11:16:54;;;;;;;9.93;9.10;;;21.30;1.00;;;;;;5049257;28;20082;-63
2022/05/04 11:19:24;;;;;;;10.90;9.23;;;21.30;1.00;;;;;;5053058;28;20071;-64
2022/05/04 11:21:50;;;;;;;11.95;9.50;;;21.40;1.00;;;;;;5046516;28;20071;-63
2022/05/04 11:24:17;;;;;;;10.70;9.55;;;21.40;1.00;;;;;;5045262;28;20057;-64
2022/05/04 11:26:44;;;;;;;10.40;9.30;;;21.60;1.00;;;;;;5045763;28;20025;-64
2022/05/04 11:29:19;;;;;;;9.65;8.27;;;21.60;1.00;;;;;;5046198;28;20033;-64
2022/05/04 11:31:47;;;;;;;10.43;8.95;;;21.70;1.00;;;;;;5046739;28;20154;-63
2022/05/04 11:34:16;;;;;;;10.80;9.77;;;21.80;1.00;;;;;;5045847;28;20458;-63
2022/05/04 11:36:48;;;;;;;9.55;8.73;;;21.90;1.00;;;;;;5046871;28;20044;-64
2022/05/04 11:39:26;;;;;;;9.43;8.52;;;21.90;1.00;;;;;;5051831;28;20035;-64
2022/05/04 11:41:55;;;;;;;9.52;7.70;;;21.90;1.00;;;;;;5066914;28;20440;-64
2022/05/04 11:44:23;;;;;;;12.05;8.85;;;21.90;1.00;;;;;;5052554;28;20115;-64
2022/05/04 11:46:59;;;;;;;9.98;8.73;;;21.80;1.00;;;;;;5051088;28;20123;-63
2022/05/04 11:49:27;;;;;;;10.93;9.20;;;21.80;1.00;;;;;;5051397;28;20051;-63
2022/05/04 11:51:54;;;;;;;10.55;9.02;;;21.80;1.00;;;;;;5051542;28;20090;-63
2022/05/04 11:54:20;;;;;;;11.25;9.57;;;21.80;1.00;;;;;;5067414;28;20490;-63
2022/05/04 11:56:46;;;;;;;10.70;8.82;;;21.90;1.00;;;;;;5051491;28;20025;-63
2022/05/04 11:59:12;;;;;;;11.30;8.55;;;21.90;1.00;;;;;;5052079;28;20367;-64
2022/05/04 12:01:38;;;;;;;9.88;8.98;;;21.90;1.00;;;;;;5051949;28;20021;-63
2022/05/04 12:04:05;;;;;;;9.90;8.68;;;21.80;1.00;;;;;;5051379;28;20074;-63
2022/05/04 12:06:32;;;;;;;12.20;9.18;;;21.80;1.00;;;;;;5051013;28;20041;-63
2022/05/04 12:08:59;;;;;;;11.85;9.07;;;21.80;1.00;;;;;;5051937;28;20028;-64
2022/05/04 12:11:25;;;;;;;10.27;8.32;;;21.80;1.00;;;;;;5051868;28;20037;-63
2022/05/04 12:13:52;;;;;;;14.20;9.98;;;21.80;1.00;;;;;;5050817;28;20043;-64
2022/05/04 12:16:18;;;;;;;11.93;9.52;;;22.40;1.00;;;;;;5049295;28;20025;-63
2022/05/04 12:19:05;;;;;;;9.13;8.20;;;22.20;1.00;;;;;;5049638;28;20068;-63
2022/05/04 12:21:31;;;;;;;10.82;8.57;;;22.10;1.00;;;;;;5049842;28;20478;-64
2022/05/04 12:23:57;;;;;;;8.90;8.02;;;22.10;1.00;;;;;;5050822;28;20035;-63
2022/05/04 12:26:23;;;;;;;8.93;7.80;;;22.00;1.00;;;;;;5050218;28;20025;-64
2022/05/04 12:34:25;;;;;;;9.85;7.88;;;21.90;1.00;;;;;;5052209;28;20586;-64
2022/05/04 12:36:51;;;;;;;8.45;7.57;;;21.90;1.00;;;;;;5049843;28;20020;-62
2022/05/04 12:39:20;;;;;;;10.55;8.32;;;22.00;1.00;;;;;;5048979;28;20501;-63
2022/05/04 12:41:45;;;;;;;11.50;8.52;;;22.30;1.00;;;;;;5048742;28;20478;-63
2022/05/04 12:44:14;;;;;;;9.35;7.90;;;23.60;1.00;;;;;;5065951;28;20048;-64
2022/05/04 12:46:40;;;;;;;8.98;8.07;;;24.90;1.00;;;;;;5049084;28;20114;-63
2022/05/04 12:49:06;;;;;;;8.48;7.68;;;26.00;1.00;;;;;;5051852;28;20064;-63
2022/05/04 12:51:32;;;;;;;8.95;7.85;;;27.00;1.00;;;;;;5049547;28;20100;-62
2022/05/04 12:53:58;;;;;;;8.48;7.75;;;27.40;1.00;;;;;;5049275;28;20036;-63
2022/05/04 12:59:08;;;;;;;8.75;7.85;;;28.60;1.00;;;;;;5048687;28;20402;-64
2022/05/04 13:01:36;;;;;;;9.02;7.78;;;28.90;1.00;;;;;;5048662;28;20025;-63
2022/05/04 13:04:02;;;;;;;7.82;7.05;;;28.80;1.00;;;;;;5046135;28;20092;-64
2022/05/04 13:06:28;;;;;;;8.95;8.13;;;29.40;1.00;;;;;;5047225;28;20036;-64
2022/05/04 13:08:54;;;;;;;12.10;9.13;;;29.60;1.00;;;;;;5067543;28;20034;-64
2022/05/04 13:11:21;;;;;;;9.98;8.32;;;29.60;1.00;;;;;;5049882;28;20367;-64
2022/05/04 13:13:47;;;;;;;8.60;7.80;;;30.90;1.00;;;;;;5051653;28;20037;-64
2022/05/04 13:16:13;;;;;;;9.07;8.10;;;32.10;1.00;;;;;;5048155;28;20104;-64
2022/05/04 13:18:39;;;;;;;9.57;8.68;;;33.50;1.00;;;;;;5062875;28;20117;-64